sensor_id;sensor_type;location;lat;lon;timestamp;temperature;humidity
18741;DHT22;9499;52.472;13.448;2023-09-18T00:01:28;20.60;99.90
18741;DHT22;9499;52.472;13.448;2023-09-18T00:03:55;20.60;99.90
18741;DHT22;9499;52.472;13.448;2023-09-18T00:06:21;20.60;99.90
18741;DHT22;9499;52.472;13.448;2023-09-18T00:08:49;20.60;99.90
18741;DHT22;9499;52.472;13.448;2023-09-18T00:11:16;20.60;99.90
18741;DHT22;9499;52.472;13.448;2023-09-18T00:13:44;20.50;99.90
18741;DHT22;9499;52.472;13.448;2023-09-18T00:16:10;20.50;99.90
18741;DHT22;9499;52.472;13.448;2023-09-18T00:18:38;20.50;99.90
18741;DHT22;9499;52.472;13.448;2023-09-18T00:21:04;20.50;81.00
18741;DHT22;9499;52.472;13.448;2023-09-18T00:23:32;20.50;99.90
18741;DHT22;9499;52.472;13.448;2023-09-18T00:26:00;20.40;99.90
18741;DHT22;9499;52.472;13.448;2023-09-18T00:28:27;20.40;99.90
18741;DHT22;9499;52.472;13.448;2023-09-18T00:30:55;20.40;99.90
18741;DHT22;9499;52.472;13.448;2023-09-18T00:33:21;20.40;99.90
18741;DHT22;9499;52.472;13.448;2023-09-18T00:35:48;20.40;99.90
18741;DHT22;9499;52.472;13.448;2023-09-18T00:38:15;20.30;99.90
18741;DHT22;9499;52.472;13.448;2023-09-18T00:40:42;20.30;99.90
18741;DHT22;9499;52.472;13.448;2023-09-18T00:43:09;20.30;99.90
18741;DHT22;9499;52.472;13.448;2023-09-18T00:45:39;20.30;99.90
18741;DHT22;9499;52.472;13.448;2023-09-18T00:48:07;20.30;99.90
18741;DHT22;9499;52.472;13.448;2023-09-18T00:50:34;20.20;99.90
18741;DHT22;9499;52.472;13.448;2023-09-18T00:53:02;20.20;99.90
18741;DHT22;9499;52.472;13.448;2023-09-18T00:55:30;20.20;99.90
18741;DHT22;9499;52.472;13.448;2023-09-18T00:57:57;20.20;99.90
18741;DHT22;9499;52.472;13.448;2023-09-18T01:00:24;20.20;99.90
18741;DHT22;9499;52.472;13.448;2023-09-18T01:02:51;20.20;99.90
18741;DHT22;9499;52.472;13.448;2023-09-18T01:05:18;20.20;99.90
18741;DHT22;9499;52.472;13.448;2023-09-18T01:07:45;20.20;99.90
18741;DHT22;9499;52.472;13.448;2023-09-18T01:10:12;20.10;99.90
18741;DHT22;9499;52.472;13.448;2023-09-18T01:12:45;20.10;99.90
18741;DHT22;9499;52.472;13.448;2023-09-18T01:15:17;20.10;99.90
18741;DHT22;9499;52.472;13.448;2023-09-18T01:17:45;20.10;99.90
18741;DHT22;9499;52.472;13.448;2023-09-18T01:20:12;20.10;99.90
18741;DHT22;9499;52.472;13.448;2023-09-18T01:22:40;20.10;99.90
18741;DHT22;9499;52.472;13.448;2023-09-18T01:25:07;20.00;99.90
18741;DHT22;9499;52.472;13.448;2023-09-18T01:27:34;20.00;99.90
18741;DHT22;9499;52.472;13.448;2023-09-18T01:30:00;20.00;99.90
18741;DHT22;9499;52.472;13.448;2023-09-18T01:32:30;20.00;99.90
18741;DHT22;9499;52.472;13.448;2023-09-18T01:34:59;19.90;1.00
18741;DHT22;9499;52.472;13.448;2023-09-18T01:37:28;19.90;1.00
18741;DHT22;9499;52.472;13.448;2023-09-18T01:39:56;19.90;1.00
18741;DHT22;9499;52.472;13.448;2023-09-18T01:42:24;19.90;1.00
18741;DHT22;9499;52.472;13.448;2023-09-18T01:44:52;19.80;1.00
18741;DHT22;9499;52.472;13.448;2023-09-18T01:47:19;19.80;1.00
18741;DHT22;9499;52.472;13.448;2023-09-18T01:49:47;19.90;1.00
18741;DHT22;9499;52.472;13.448;2023-09-18T01:52:13;19.80;1.00
18741;DHT22;9499;52.472;13.448;2023-09-18T01:54:40;19.80;1.00
18741;DHT22;9499;52.472;13.448;2023-09-18T01:57:08;19.80;1.00
18741;DHT22;9499;52.472;13.448;2023-09-18T01:59:34;19.80;1.00
18741;DHT22;9499;52.472;13.448;2023-09-18T02:02:01;19.80;1.00
18741;DHT22;9499;52.472;13.448;2023-09-18T02:04:29;19.70;1.00
18741;DHT22;9499;52.472;13.448;2023-09-18T02:06:56;19.70;1.00
18741;DHT22;9499;52.472;13.448;2023-09-18T02:09:23;19.70;1.00
18741;DHT22;9499;52.472;13.448;2023-09-18T02:11:49;19.70;1.00
18741;DHT22;9499;52.472;13.448;2023-09-18T02:14:17;19.60;1.00
18741;DHT22;9499;52.472;13.448;2023-09-18T02:16:44;19.60;1.00
18741;DHT22;9499;52.472;13.448;2023-09-18T02:19:12;19.50;29.20
18741;DHT22;9499;52.472;13.448;2023-09-18T02:21:39;19.40;99.90
18741;DHT22;9499;52.472;13.448;2023-09-18T02:24:06;19.30;99.90
18741;DHT22;9499;52.472;13.448;2023-09-18T02:26:33;19.30;99.90
18741;DHT22;9499;52.472;13.448;2023-09-18T02:29:00;19.30;99.90
18741;DHT22;9499;52.472;13.448;2023-09-18T02:31:28;19.30;99.90
18741;DHT22;9499;52.472;13.448;2023-09-18T02:33:55;19.30;99.90
18741;DHT22;9499;52.472;13.448;2023-09-18T02:36:22;19.30;99.90
18741;DHT22;9499;52.472;13.448;2023-09-18T02:38:48;19.30;99.90
18741;DHT22;9499;52.472;13.448;2023-09-18T02:41:15;19.30;99.90
18741;DHT22;9499;52.472;13.448;2023-09-18T02:43:41;19.30;99.90
18741;DHT22;9499;52.472;13.448;2023-09-18T02:46:08;19.30;99.90
18741;DHT22;9499;52.472;13.448;2023-09-18T02:48:36;19.30;99.90
18741;DHT22;9499;52.472;13.448;2023-09-18T02:51:02;19.30;99.90
18741;DHT22;9499;52.472;13.448;2023-09-18T02:53:29;19.30;99.90
18741;DHT22;9499;52.472;13.448;2023-09-18T02:55:57;19.20;99.90
18741;DHT22;9499;52.472;13.448;2023-09-18T02:58:24;19.20;99.90
18741;DHT22;9499;52.472;13.448;2023-09-18T03:00:52;19.20;99.90
18741;DHT22;9499;52.472;13.448;2023-09-18T03:03:19;19.10;99.90
18741;DHT22;9499;52.472;13.448;2023-09-18T03:05:47;19.10;99.90
18741;DHT22;9499;52.472;13.448;2023-09-18T03:08:14;19.10;99.90
18741;DHT22;9499;52.472;13.448;2023-09-18T03:10:42;19.00;99.90
18741;DHT22;9499;52.472;13.448;2023-09-18T03:13:10;19.10;99.90
18741;DHT22;9499;52.472;13.448;2023-09-18T03:15:37;19.00;99.90
18741;DHT22;9499;52.472;13.448;2023-09-18T03:18:06;19.00;99.90
18741;DHT22;9499;52.472;13.448;2023-09-18T03:20:33;19.00;99.90
18741;DHT22;9499;52.472;13.448;2023-09-18T03:23:02;19.00;99.90
18741;DHT22;9499;52.472;13.448;2023-09-18T03:25:28;19.00;99.90
18741;DHT22;9499;52.472;13.448;2023-09-18T03:27:56;19.00;99.90
18741;DHT22;9499;52.472;13.448;2023-09-18T03:30:24;19.00;99.90
18741;DHT22;9499;52.472;13.448;2023-09-18T03:32:51;19.00;99.90
18741;DHT22;9499;52.472;13.448;2023-09-18T03:35:18;19.00;99.90
18741;DHT22;9499;52.472;13.448;2023-09-18T03:37:45;19.00;99.90
18741;DHT22;9499;52.472;13.448;2023-09-18T03:40:14;19.00;99.90
18741;DHT22;9499;52.472;13.448;2023-09-18T03:42:41;19.00;99.90
18741;DHT22;9499;52.472;13.448;2023-09-18T03:45:08;19.00;99.90
18741;DHT22;9499;52.472;13.448;2023-09-18T03:47:36;19.00;99.90
18741;DHT22;9499;52.472;13.448;2023-09-18T03:50:03;18.90;99.90
18741;DHT22;9499;52.472;13.448;2023-09-18T03:52:29;18.90;99.90
18741;DHT22;9499;52.472;13.448;2023-09-18T03:54:56;18.90;99.90
18741;DHT22;9499;52.472;13.448;2023-09-18T03:57:24;18.90;99.90
18741;DHT22;9499;52.472;13.448;2023-09-18T03:59:50;18.90;99.90
18741;DHT22;9499;52.472;13.448;2023-09-18T04:02:17;18.90;99.90
18741;DHT22;9499;52.472;13.448;2023-09-18T04:04:43;18.90;99.90
18741;DHT22;9499;52.472;13.448;2023-09-18T04:07:10;18.80;99.90
18741;DHT22;9499;52.472;13.448;2023-09-18T04:09:37;18.80;99.90
18741;DHT22;9499;52.472;13.448;2023-09-18T04:12:05;18.80;1.00
18741;DHT22;9499;52.472;13.448;2023-09-18T04:14:33;18.80;1.00
18741;DHT22;9499;52.472;13.448;2023-09-18T04:17:00;18.80;1.00
18741;DHT22;9499;52.472;13.448;2023-09-18T04:19:27;18.80;1.00
18741;DHT22;9499;52.472;13.448;2023-09-18T04:21:53;18.80;1.00
18741;DHT22;9499;52.472;13.448;2023-09-18T04:24:21;18.80;1.00
18741;DHT22;9499;52.472;13.448;2023-09-18T04:26:48;18.80;1.00
18741;DHT22;9499;52.472;13.448;2023-09-18T04:29:16;18.80;1.00
18741;DHT22;9499;52.472;13.448;2023-09-18T04:31:44;18.80;1.00
18741;DHT22;9499;52.472;13.448;2023-09-18T04:34:11;18.70;1.00
18741;DHT22;9499;52.472;13.448;2023-09-18T04:36:37;18.70;1.00
18741;DHT22;9499;52.472;13.448;2023-09-18T04:39:04;18.70;1.00
18741;DHT22;9499;52.472;13.448;2023-09-18T04:41:31;18.70;1.00
18741;DHT22;9499;52.472;13.448;2023-09-18T04:43:58;18.70;1.00
18741;DHT22;9499;52.472;13.448;2023-09-18T04:46:24;18.70;1.00
18741;DHT22;9499;52.472;13.448;2023-09-18T04:48:52;18.70;1.00
18741;DHT22;9499;52.472;13.448;2023-09-18T04:51:19;18.70;1.00
18741;DHT22;9499;52.472;13.448;2023-09-18T04:53:45;18.70;1.00
18741;DHT22;9499;52.472;13.448;2023-09-18T04:56:12;18.70;1.00
18741;DHT22;9499;52.472;13.448;2023-09-18T04:58:39;18.70;1.00
18741;DHT22;9499;52.472;13.448;2023-09-18T05:01:05;18.70;1.00
18741;DHT22;9499;52.472;13.448;2023-09-18T05:03:33;18.70;1.00
18741;DHT22;9499;52.472;13.448;2023-09-18T05:06:01;18.70;1.00
18741;DHT22;9499;52.472;13.448;2023-09-18T05:08:29;18.70;1.00
18741;DHT22;9499;52.472;13.448;2023-09-18T05:10:56;18.70;1.00
18741;DHT22;9499;52.472;13.448;2023-09-18T05:13:23;18.70;1.00
18741;DHT22;9499;52.472;13.448;2023-09-18T05:15:49;18.70;1.00
18741;DHT22;9499;52.472;13.448;2023-09-18T05:18:16;18.70;1.00
18741;DHT22;9499;52.472;13.448;2023-09-18T05:20:43;18.70;1.00
18741;DHT22;9499;52.472;13.448;2023-09-18T05:23:11;18.70;1.00
18741;DHT22;9499;52.472;13.448;2023-09-18T05:25:38;18.70;1.00
18741;DHT22;9499;52.472;13.448;2023-09-18T05:28:07;18.70;1.00
18741;DHT22;9499;52.472;13.448;2023-09-18T05:30:35;18.70;1.00
18741;DHT22;9499;52.472;13.448;2023-09-18T05:33:05;18.80;1.00
18741;DHT22;9499;52.472;13.448;2023-09-18T05:35:33;18.80;1.00
18741;DHT22;9499;52.472;13.448;2023-09-18T05:37:59;18.80;1.00
18741;DHT22;9499;52.472;13.448;2023-09-18T05:40:27;18.80;1.00
18741;DHT22;9499;52.472;13.448;2023-09-18T05:42:55;18.90;1.00
18741;DHT22;9499;52.472;13.448;2023-09-18T05:45:21;18.90;1.00
18741;DHT22;9499;52.472;13.448;2023-09-18T05:47:49;18.90;1.00
18741;DHT22;9499;52.472;13.448;2023-09-18T05:50:16;18.90;1.00
18741;DHT22;9499;52.472;13.448;2023-09-18T05:52:44;19.00;1.00
18741;DHT22;9499;52.472;13.448;2023-09-18T05:55:10;18.90;1.00
18741;DHT22;9499;52.472;13.448;2023-09-18T05:57:39;19.00;1.00
18741;DHT22;9499;52.472;13.448;2023-09-18T06:00:06;19.00;1.00
18741;DHT22;9499;52.472;13.448;2023-09-18T06:02:33;19.00;1.00
18741;DHT22;9499;52.472;13.448;2023-09-18T06:05:01;19.00;1.00
18741;DHT22;9499;52.472;13.448;2023-09-18T06:07:28;19.10;1.00
18741;DHT22;9499;52.472;13.448;2023-09-18T06:09:56;19.10;1.00
18741;DHT22;9499;52.472;13.448;2023-09-18T06:12:22;19.20;1.00
18741;DHT22;9499;52.472;13.448;2023-09-18T06:14:51;19.20;1.00
18741;DHT22;9499;52.472;13.448;2023-09-18T06:17:18;19.30;1.00
18741;DHT22;9499;52.472;13.448;2023-09-18T06:19:45;19.30;1.00
18741;DHT22;9499;52.472;13.448;2023-09-18T06:22:12;19.30;1.00
18741;DHT22;9499;52.472;13.448;2023-09-18T06:24:39;19.40;1.00
18741;DHT22;9499;52.472;13.448;2023-09-18T06:27:05;19.50;99.90
18741;DHT22;9499;52.472;13.448;2023-09-18T06:29:32;19.50;99.90
18741;DHT22;9499;52.472;13.448;2023-09-18T06:32:01;19.60;99.90
18741;DHT22;9499;52.472;13.448;2023-09-18T06:34:27;19.60;99.90
18741;DHT22;9499;52.472;13.448;2023-09-18T06:36:54;19.60;99.90
18741;DHT22;9499;52.472;13.448;2023-09-18T06:39:21;19.60;99.90
18741;DHT22;9499;52.472;13.448;2023-09-18T06:41:49;19.70;99.90
18741;DHT22;9499;52.472;13.448;2023-09-18T06:44:15;19.70;99.90
18741;DHT22;9499;52.472;13.448;2023-09-18T06:46:42;19.70;99.90
18741;DHT22;9499;52.472;13.448;2023-09-18T06:49:10;19.80;99.90
18741;DHT22;9499;52.472;13.448;2023-09-18T06:51:36;19.80;99.90
18741;DHT22;9499;52.472;13.448;2023-09-18T06:54:03;19.90;99.90
18741;DHT22;9499;52.472;13.448;2023-09-18T06:56:29;19.90;99.90
18741;DHT22;9499;52.472;13.448;2023-09-18T06:58:56;20.00;99.90
18741;DHT22;9499;52.472;13.448;2023-09-18T07:01:22;20.10;76.80
18741;DHT22;9499;52.472;13.448;2023-09-18T07:03:51;20.10;15.80
18741;DHT22;9499;52.472;13.448;2023-09-18T07:06:19;20.20;1.00
18741;DHT22;9499;52.472;13.448;2023-09-18T07:08:46;20.20;1.00
18741;DHT22;9499;52.472;13.448;2023-09-18T07:11:14;20.30;1.00
18741;DHT22;9499;52.472;13.448;2023-09-18T07:13:41;20.40;1.00
18741;DHT22;9499;52.472;13.448;2023-09-18T07:16:09;20.40;1.00
18741;DHT22;9499;52.472;13.448;2023-09-18T07:18:35;20.50;1.00
18741;DHT22;9499;52.472;13.448;2023-09-18T07:21:02;20.60;1.00
18741;DHT22;9499;52.472;13.448;2023-09-18T07:23:31;20.60;1.00
18741;DHT22;9499;52.472;13.448;2023-09-18T07:25:57;20.70;1.00
18741;DHT22;9499;52.472;13.448;2023-09-18T07:28:24;20.80;99.90
18741;DHT22;9499;52.472;13.448;2023-09-18T07:30:50;20.90;99.90
18741;DHT22;9499;52.472;13.448;2023-09-18T07:33:17;21.00;99.90
18741;DHT22;9499;52.472;13.448;2023-09-18T07:35:46;21.10;1.00
18741;DHT22;9499;52.472;13.448;2023-09-18T07:38:13;21.10;1.00
18741;DHT22;9499;52.472;13.448;2023-09-18T07:40:41;21.20;1.00
18741;DHT22;9499;52.472;13.448;2023-09-18T07:43:08;21.30;1.00
18741;DHT22;9499;52.472;13.448;2023-09-18T07:45:37;21.30;1.00
18741;DHT22;9499;52.472;13.448;2023-09-18T07:48:04;21.40;1.00
18741;DHT22;9499;52.472;13.448;2023-09-18T07:50:31;21.50;1.00
18741;DHT22;9499;52.472;13.448;2023-09-18T07:52:58;21.50;99.90
18741;DHT22;9499;52.472;13.448;2023-09-18T07:55:25;21.60;99.90
18741;DHT22;9499;52.472;13.448;2023-09-18T07:57:53;21.70;99.90
18741;DHT22;9499;52.472;13.448;2023-09-18T08:00:19;21.70;99.90
18741;DHT22;9499;52.472;13.448;2023-09-18T08:02:48;21.80;1.00
18741;DHT22;9499;52.472;13.448;2023-09-18T08:05:16;21.90;1.00
18741;DHT22;9499;52.472;13.448;2023-09-18T08:07:43;22.00;1.00
18741;DHT22;9499;52.472;13.448;2023-09-18T08:10:10;22.10;1.00
18741;DHT22;9499;52.472;13.448;2023-09-18T08:12:38;22.20;99.90
18741;DHT22;9499;52.472;13.448;2023-09-18T08:15:07;22.30;1.00
18741;DHT22;9499;52.472;13.448;2023-09-18T08:17:34;22.40;99.90
18741;DHT22;9499;52.472;13.448;2023-09-18T08:20:00;22.60;1.00
18741;DHT22;9499;52.472;13.448;2023-09-18T08:22:28;22.60;1.00
18741;DHT22;9499;52.472;13.448;2023-09-18T08:24:55;22.60;99.90
18741;DHT22;9499;52.472;13.448;2023-09-18T08:27:24;22.70;99.90
18741;DHT22;9499;52.472;13.448;2023-09-18T08:29:50;22.90;13.70
18741;DHT22;9499;52.472;13.448;2023-09-18T08:32:18;22.90;1.00
18741;DHT22;9499;52.472;13.448;2023-09-18T08:34:44;23.00;1.00
18741;DHT22;9499;52.472;13.448;2023-09-18T08:37:11;23.10;1.00
18741;DHT22;9499;52.472;13.448;2023-09-18T08:39:38;23.20;99.90
18741;DHT22;9499;52.472;13.448;2023-09-18T08:42:07;23.30;1.00
18741;DHT22;9499;52.472;13.448;2023-09-18T08:44:38;23.50;99.90
18741;DHT22;9499;52.472;13.448;2023-09-18T08:47:05;23.60;1.00
18741;DHT22;9499;52.472;13.448;2023-09-18T08:49:34;23.70;1.00
18741;DHT22;9499;52.472;13.448;2023-09-18T08:52:01;23.90;1.00
18741;DHT22;9499;52.472;13.448;2023-09-18T08:54:28;23.90;1.00
18741;DHT22;9499;52.472;13.448;2023-09-18T08:56:55;24.00;99.90
18741;DHT22;9499;52.472;13.448;2023-09-18T08:59:22;24.10;1.00
18741;DHT22;9499;52.472;13.448;2023-09-18T09:01:49;24.10;99.90
18741;DHT22;9499;52.472;13.448;2023-09-18T09:04:16;24.20;1.00
18741;DHT22;9499;52.472;13.448;2023-09-18T09:06:43;24.20;1.00
18741;DHT22;9499;52.472;13.448;2023-09-18T09:09:10;24.30;1.00
18741;DHT22;9499;52.472;13.448;2023-09-18T09:11:38;24.40;99.90
18741;DHT22;9499;52.472;13.448;2023-09-18T09:14:09;24.50;98.70
18741;DHT22;9499;52.472;13.448;2023-09-18T09:16:44;24.60;1.00
18741;DHT22;9499;52.472;13.448;2023-09-18T09:19:12;24.70;99.90
18741;DHT22;9499;52.472;13.448;2023-09-18T09:21:39;24.90;38.00
18741;DHT22;9499;52.472;13.448;2023-09-18T09:24:08;25.00;99.90
18741;DHT22;9499;52.472;13.448;2023-09-18T09:26:39;25.00;99.90
18741;DHT22;9499;52.472;13.448;2023-09-18T09:29:14;25.10;99.90
18741;DHT22;9499;52.472;13.448;2023-09-18T09:31:43;25.20;99.90
18741;DHT22;9499;52.472;13.448;2023-09-18T09:34:10;25.30;1.00
18741;DHT22;9499;52.472;13.448;2023-09-18T09:36:38;25.30;1.00
18741;DHT22;9499;52.472;13.448;2023-09-18T09:39:18;25.30;1.00
18741;DHT22;9499;52.472;13.448;2023-09-18T09:41:47;25.40;1.00
18741;DHT22;9499;52.472;13.448;2023-09-18T09:44:14;25.40;1.00
18741;DHT22;9499;52.472;13.448;2023-09-18T09:46:45;25.40;1.00
18741;DHT22;9499;52.472;13.448;2023-09-18T09:49:12;25.50;1.00
18741;DHT22;9499;52.472;13.448;2023-09-18T09:51:41;25.70;96.50
18741;DHT22;9499;52.472;13.448;2023-09-18T09:54:09;25.80;1.00
18741;DHT22;9499;52.472;13.448;2023-09-18T09:56:45;25.90;1.00
18741;DHT22;9499;52.472;13.448;2023-09-18T09:59:13;25.90;1.00
18741;DHT22;9499;52.472;13.448;2023-09-18T10:01:40;25.90;1.00
18741;DHT22;9499;52.472;13.448;2023-09-18T10:04:10;25.90;1.00
18741;DHT22;9499;52.472;13.448;2023-09-18T10:06:40;25.90;1.00
18741;DHT22;9499;52.472;13.448;2023-09-18T10:09:08;25.90;1.00
18741;DHT22;9499;52.472;13.448;2023-09-18T10:11:41;25.90;1.00
18741;DHT22;9499;52.472;13.448;2023-09-18T10:14:12;25.90;1.00
18741;DHT22;9499;52.472;13.448;2023-09-18T10:16:43;25.90;1.00
18741;DHT22;9499;52.472;13.448;2023-09-18T10:19:20;26.00;1.00
18741;DHT22;9499;52.472;13.448;2023-09-18T10:21:55;26.00;99.90
18741;DHT22;9499;52.472;13.448;2023-09-18T10:24:28;26.00;99.90
18741;DHT22;9499;52.472;13.448;2023-09-18T10:26:59;26.10;99.90
18741;DHT22;9499;52.472;13.448;2023-09-18T10:29:29;26.10;99.90
18741;DHT22;9499;52.472;13.448;2023-09-18T10:31:56;26.20;99.90
18741;DHT22;9499;52.472;13.448;2023-09-18T10:34:24;26.10;99.90
18741;DHT22;9499;52.472;13.448;2023-09-18T10:36:54;26.10;99.90
18741;DHT22;9499;52.472;13.448;2023-09-18T10:39:23;26.00;17.80
18741;DHT22;9499;52.472;13.448;2023-09-18T10:41:53;26.10;2.50
18741;DHT22;9499;52.472;13.448;2023-09-18T10:44:20;26.10;1.00
18741;DHT22;9499;52.472;13.448;2023-09-18T10:46:50;26.10;1.00
18741;DHT22;9499;52.472;13.448;2023-09-18T10:49:17;26.10;1.00
18741;DHT22;9499;52.472;13.448;2023-09-18T10:51:46;26.00;1.00
18741;DHT22;9499;52.472;13.448;2023-09-18T10:54:16;26.10;1.00
18741;DHT22;9499;52.472;13.448;2023-09-18T10:56:43;26.10;37.10
18741;DHT22;9499;52.472;13.448;2023-09-18T10:59:10;26.10;13.40
18741;DHT22;9499;52.472;13.448;2023-09-18T11:01:37;26.20;94.00
18741;DHT22;9499;52.472;13.448;2023-09-18T11:04:06;26.20;27.70
18741;DHT22;9499;52.472;13.448;2023-09-18T11:07:01;26.20;1.00
18741;DHT22;9499;52.472;13.448;2023-09-18T11:09:30;26.20;97.50
18741;DHT22;9499;52.472;13.448;2023-09-18T11:12:02;26.20;73.10
18741;DHT22;9499;52.472;13.448;2023-09-18T11:14:41;26.10;32.60
18741;DHT22;9499;52.472;13.448;2023-09-18T11:17:33;26.10;99.90
18741;DHT22;9499;52.472;13.448;2023-09-18T11:20:07;26.00;99.90
18741;DHT22;9499;52.472;13.448;2023-09-18T11:22:35;26.00;99.90
18741;DHT22;9499;52.472;13.448;2023-09-18T11:25:31;25.90;99.90
18741;DHT22;9499;52.472;13.448;2023-09-18T11:28:01;25.90;99.90
18741;DHT22;9499;52.472;13.448;2023-09-18T11:30:27;25.90;99.90
18741;DHT22;9499;52.472;13.448;2023-09-18T11:32:54;25.80;99.90
18741;DHT22;9499;52.472;13.448;2023-09-18T11:35:22;25.80;99.90
18741;DHT22;9499;52.472;13.448;2023-09-18T11:38:03;25.90;99.90
18741;DHT22;9499;52.472;13.448;2023-09-18T11:40:32;25.90;99.90
18741;DHT22;9499;52.472;13.448;2023-09-18T11:43:20;25.80;99.90
18741;DHT22;9499;52.472;13.448;2023-09-18T11:45:52;25.80;99.90
18741;DHT22;9499;52.472;13.448;2023-09-18T11:48:19;25.70;99.90
18741;DHT22;9499;52.472;13.448;2023-09-18T11:50:48;25.70;1.00
18741;DHT22;9499;52.472;13.448;2023-09-18T11:53:16;25.70;1.00
18741;DHT22;9499;52.472;13.448;2023-09-18T11:55:43;25.70;1.00
18741;DHT22;9499;52.472;13.448;2023-09-18T11:58:10;25.70;1.00
18741;DHT22;9499;52.472;13.448;2023-09-18T12:00:36;25.70;1.00
18741;DHT22;9499;52.472;13.448;2023-09-18T12:03:18;25.70;1.00
18741;DHT22;9499;52.472;13.448;2023-09-18T12:05:52;25.70;1.00
18741;DHT22;9499;52.472;13.448;2023-09-18T12:08:19;25.70;1.00
18741;DHT22;9499;52.472;13.448;2023-09-18T12:10:49;25.70;1.00
18741;DHT22;9499;52.472;13.448;2023-09-18T12:13:15;25.80;1.00
18741;DHT22;9499;52.472;13.448;2023-09-18T12:15:42;25.90;86.10
18741;DHT22;9499;52.472;13.448;2023-09-18T12:18:09;26.00;1.00
18741;DHT22;9499;52.472;13.448;2023-09-18T12:23:08;26.20;1.00
18741;DHT22;9499;52.472;13.448;2023-09-18T12:25:34;26.40;99.90
18741;DHT22;9499;52.472;13.448;2023-09-18T12:28:01;26.50;99.90
18741;DHT22;9499;52.472;13.448;2023-09-18T12:30:29;26.60;99.90
18741;DHT22;9499;52.472;13.448;2023-09-18T12:32:58;26.60;99.90
18741;DHT22;9499;52.472;13.448;2023-09-18T12:35:26;26.60;99.90
18741;DHT22;9499;52.472;13.448;2023-09-18T12:37:55;26.50;99.90
18741;DHT22;9499;52.472;13.448;2023-09-18T12:40:25;26.50;93.40
18741;DHT22;9499;52.472;13.448;2023-09-18T12:42:53;26.40;49.80
18741;DHT22;9499;52.472;13.448;2023-09-18T12:45:20;26.40;38.20
18741;DHT22;9499;52.472;13.448;2023-09-18T12:47:46;26.40;99.90
18741;DHT22;9499;52.472;13.448;2023-09-18T12:50:13;26.30;42.20
18741;DHT22;9499;52.472;13.448;2023-09-18T12:52:40;26.20;1.00
18741;DHT22;9499;52.472;13.448;2023-09-18T12:55:07;26.20;1.00
18741;DHT22;9499;52.472;13.448;2023-09-18T12:57:35;26.20;1.00
18741;DHT22;9499;52.472;13.448;2023-09-18T13:00:08;26.20;1.00
18741;DHT22;9499;52.472;13.448;2023-09-18T13:02:38;26.20;1.00
18741;DHT22;9499;52.472;13.448;2023-09-18T13:05:06;26.20;1.00
18741;DHT22;9499;52.472;13.448;2023-09-18T13:07:43;26.10;1.00
18741;DHT22;9499;52.472;13.448;2023-09-18T13:10:11;26.10;1.00
18741;DHT22;9499;52.472;13.448;2023-09-18T13:12:41;26.00;30.60
18741;DHT22;9499;52.472;13.448;2023-09-18T13:15:08;25.90;99.90
18741;DHT22;9499;52.472;13.448;2023-09-18T13:17:40;25.90;99.90
18741;DHT22;9499;52.472;13.448;2023-09-18T13:20:13;25.90;1.00
18741;DHT22;9499;52.472;13.448;2023-09-18T13:22:41;25.90;1.00
18741;DHT22;9499;52.472;13.448;2023-09-18T13:25:09;25.80;1.00
18741;DHT22;9499;52.472;13.448;2023-09-18T13:27:36;25.70;1.00
18741;DHT22;9499;52.472;13.448;2023-09-18T13:30:05;25.70;1.00
18741;DHT22;9499;52.472;13.448;2023-09-18T13:32:34;25.60;1.00
18741;DHT22;9499;52.472;13.448;2023-09-18T13:35:02;25.60;1.00
18741;DHT22;9499;52.472;13.448;2023-09-18T13:37:31;25.60;1.00
18741;DHT22;9499;52.472;13.448;2023-09-18T13:39:57;25.60;1.00
18741;DHT22;9499;52.472;13.448;2023-09-18T13:42:26;25.50;1.00
18741;DHT22;9499;52.472;13.448;2023-09-18T13:44:55;25.40;99.90
18741;DHT22;9499;52.472;13.448;2023-09-18T13:47:22;25.30;99.90
18741;DHT22;9499;52.472;13.448;2023-09-18T13:49:49;25.30;99.90
18741;DHT22;9499;52.472;13.448;2023-09-18T13:52:16;25.10;99.90
18741;DHT22;9499;52.472;13.448;2023-09-18T13:54:45;25.00;1.00
18741;DHT22;9499;52.472;13.448;2023-09-18T13:57:16;24.90;99.90
18741;DHT22;9499;52.472;13.448;2023-09-18T13:59:42;24.80;31.30
18741;DHT22;9499;52.472;13.448;2023-09-18T14:02:10;24.80;99.90
18741;DHT22;9499;52.472;13.448;2023-09-18T14:04:37;24.80;1.00
18741;DHT22;9499;52.472;13.448;2023-09-18T14:07:05;24.80;1.00
18741;DHT22;9499;52.472;13.448;2023-09-18T14:09:32;24.80;1.00
18741;DHT22;9499;52.472;13.448;2023-09-18T14:11:58;24.70;1.00
18741;DHT22;9499;52.472;13.448;2023-09-18T14:14:25;24.70;99.90
18741;DHT22;9499;52.472;13.448;2023-09-18T14:16:52;24.70;1.00
18741;DHT22;9499;52.472;13.448;2023-09-18T14:19:19;24.70;99.90
18741;DHT22;9499;52.472;13.448;2023-09-18T14:21:48;24.70;99.90
18741;DHT22;9499;52.472;13.448;2023-09-18T14:24:14;24.70;1.00
18741;DHT22;9499;52.472;13.448;2023-09-18T14:26:43;24.60;99.90
18741;DHT22;9499;52.472;13.448;2023-09-18T14:29:10;24.60;99.90
18741;DHT22;9499;52.472;13.448;2023-09-18T14:31:37;24.60;1.00
18741;DHT22;9499;52.472;13.448;2023-09-18T14:34:04;24.60;99.90
18741;DHT22;9499;52.472;13.448;2023-09-18T14:36:30;24.60;50.50
18741;DHT22;9499;52.472;13.448;2023-09-18T14:38:59;24.60;1.00
18741;DHT22;9499;52.472;13.448;2023-09-18T14:41:26;24.60;99.90
18741;DHT22;9499;52.472;13.448;2023-09-18T14:43:53;24.60;1.00
18741;DHT22;9499;52.472;13.448;2023-09-18T14:46:20;24.50;99.90
18741;DHT22;9499;52.472;13.448;2023-09-18T14:48:47;24.50;99.90
18741;DHT22;9499;52.472;13.448;2023-09-18T14:51:13;24.50;99.90
18741;DHT22;9499;52.472;13.448;2023-09-18T14:53:40;24.50;99.90
18741;DHT22;9499;52.472;13.448;2023-09-18T14:56:08;24.60;1.00
18741;DHT22;9499;52.472;13.448;2023-09-18T14:58:35;24.50;1.00
18741;DHT22;9499;52.472;13.448;2023-09-18T15:01:01;24.50;1.00
18741;DHT22;9499;52.472;13.448;2023-09-18T15:03:28;24.60;1.00
18741;DHT22;9499;52.472;13.448;2023-09-18T15:05:55;24.60;1.00
18741;DHT22;9499;52.472;13.448;2023-09-18T15:08:21;24.60;99.90
18741;DHT22;9499;52.472;13.448;2023-09-18T15:10:48;24.60;93.20
18741;DHT22;9499;52.472;13.448;2023-09-18T15:13:16;24.60;1.00
18741;DHT22;9499;52.472;13.448;2023-09-18T15:15:43;24.70;1.00
18741;DHT22;9499;52.472;13.448;2023-09-18T15:18:10;24.70;1.00
18741;DHT22;9499;52.472;13.448;2023-09-18T15:20:36;24.70;1.00
18741;DHT22;9499;52.472;13.448;2023-09-18T15:23:05;24.70;1.00
18741;DHT22;9499;52.472;13.448;2023-09-18T15:25:33;24.70;1.00
18741;DHT22;9499;52.472;13.448;2023-09-18T15:28:03;24.70;1.00
18741;DHT22;9499;52.472;13.448;2023-09-18T15:30:31;24.70;1.00
18741;DHT22;9499;52.472;13.448;2023-09-18T15:32:58;24.70;1.00
18741;DHT22;9499;52.472;13.448;2023-09-18T15:35:25;24.70;1.00
18741;DHT22;9499;52.472;13.448;2023-09-18T15:37:53;24.70;1.00
18741;DHT22;9499;52.472;13.448;2023-09-18T15:40:20;24.70;1.00
18741;DHT22;9499;52.472;13.448;2023-09-18T15:42:49;24.70;1.00
18741;DHT22;9499;52.472;13.448;2023-09-18T15:45:16;24.70;1.00